Time;durP1;ratioP1;P1;durP2;ratioP2;P2;SDS_P1;SDS_P2;PMS_P1;PMS_P2;Temp;Humidity;BMP_temperature;BMP_pressure;BME280_temperature;BME280_humidity;BME280_pressure;Samples;Min_cycle;Max_cycle;Signal;HPM_P1;HPM_P2
2021/07/10 00:01:59;;;;;;;50.40;24.27;;;;;;;15.81;80.16;102113.69;5009892;28;20048;-50
2021/07/10 00:04:25;;;;;;;44.45;22.35;;;;;;;15.82;79.90;102113.72;5026175;28;20038;-48
2021/07/10 00:06:50;;;;;;;48.58;24.45;;;;;;;15.83;80.07;102104.09;5012910;28;20143;-49
2021/07/10 00:09:15;;;;;;;48.30;23.35;;;;;;;15.84;79.72;102100.59;5024854;28;20690;-49
2021/07/10 00:11:41;;;;;;;43.65;21.92;;;;;;;15.83;79.41;102098.84;5027860;28;20479;-47
2021/07/10 00:14:07;;;;;;;45.97;22.83;;;;;;;15.79;79.09;102090.03;5022966;28;20569;-51
2021/07/10 00:16:33;;;;;;;44.80;22.25;;;;;;;15.73;79.98;102091.72;5020805;28;20034;-49
2021/07/10 00:18:59;;;;;;;41.88;22.23;;;;;;;15.70;79.71;102102.19;5024134;28;20037;-48
2021/07/10 00:21:24;;;;;;;40.55;21.23;;;;;;;15.70;79.77;102094.28;5012830;28;20029;-48
2021/07/10 00:23:49;;;;;;;38.80;20.27;;;;;;;15.71;79.50;102094.31;5021191;28;20033;-49
2021/07/10 00:26:15;;;;;;;46.65;22.70;;;;;;;15.70;80.21;102092.56;5030151;28;20070;-47
2021/07/10 00:28:40;;;;;;;48.35;22.90;;;;;;;15.68;80.40;102089.00;4998305;28;20248;-48
2021/07/10 00:31:06;;;;;;;46.38;21.48;;;;;;;15.67;80.63;102084.66;5028080;28;20661;-47
2021/07/10 00:33:31;;;;;;;41.38;20.92;;;;;;;15.68;79.74;102082.88;5026168;28;20116;-50
2021/07/10 00:35:56;;;;;;;42.75;21.23;;;;;;;15.67;80.39;102087.28;5028801;28;20078;-48
2021/07/10 00:38:22;;;;;;;41.25;20.65;;;;;;;15.65;80.66;102080.22;5023711;28;20037;-49
2021/07/10 00:40:47;;;;;;;48.33;22.63;;;;;;;15.62;80.72;102080.16;5027643;28;20104;-50
2021/07/10 00:43:12;;;;;;;47.55;21.65;;;;;;;15.61;81.24;102073.19;5018806;28;20119;-50
2021/07/10 00:45:38;;;;;;;47.65;22.75;;;;;;;15.56;81.78;102070.47;5026618;28;20133;-51
2021/07/10 00:48:04;;;;;;;47.63;22.85;;;;;;;15.50;81.78;102070.34;5021242;28;20497;-48
2021/07/10 00:50:29;;;;;;;44.78;20.92;;;;;;;15.47;81.32;102070.34;5025559;28;20034;-47
2021/07/10 00:52:55;;;;;;;42.25;20.75;;;;;;;15.46;81.09;102065.06;5020664;28;20044;-48
2021/07/10 00:55:22;;;;;;;55.22;25.38;;;;;;;15.40;81.35;102064.13;5025875;28;20039;-49
2021/07/10 00:57:47;;;;;;;51.15;25.20;;;;;;;15.35;81.58;102068.44;5023670;28;20094;-47
2021/07/10 01:00:23;;;;;;;49.97;24.30;;;;;;;15.28;81.38;102061.34;5022302;28;20042;-48
2021/07/10 01:02:50;;;;;;;56.38;26.27;;;;;;;15.17;81.82;102054.19;5027911;28;20091;-51
2021/07/10 01:05:30;;;;;;;55.20;24.95;;;;;;;15.07;82.20;102060.16;5009950;28;20047;-47
2021/07/10 01:07:57;;;;;;;52.75;24.23;;;;;;;15.00;82.58;102053.97;5024879;28;20047;-49
2021/07/10 01:10:24;;;;;;;53.95;23.85;;;;;;;14.93;82.91;102052.09;5017929;28;20026;-50
2021/07/10 01:12:53;;;;;;;52.67;25.63;;;;;;;14.87;82.91;102049.38;5025346;28;20511;-49
2021/07/10 01:15:21;;;;;;;56.50;25.35;;;;;;;14.79;83.16;102045.75;5019900;28;20405;-49
2021/07/10 01:17:46;;;;;;;58.47;26.27;;;;;;;14.71;82.98;102043.00;5022338;28;20486;-48
2021/07/10 01:20:15;;;;;;;58.22;23.95;;;;;;;14.68;83.29;102055.22;5020641;28;20036;-46
2021/07/10 01:22:41;;;;;;;67.22;27.75;;;;;;;14.66;83.68;102049.06;5009110;28;20575;-48
2021/07/10 01:25:10;;;;;;;64.38;28.17;;;;;;;14.63;83.87;102047.28;5005870;28;21215;-48
2021/07/10 01:27:35;;;;;;;58.75;25.23;;;;;;;14.63;83.97;102039.41;5022316;28;20037;-49
2021/07/10 01:30:04;;;;;;;67.28;30.52;;;;;;;14.61;84.06;102046.38;5025336;28;20033;-49
2021/07/10 01:32:30;;;;;;;63.53;25.38;;;;;;;14.63;84.54;102041.16;5020548;28;20527;-47
2021/07/10 01:34:55;;;;;;;66.22;29.00;;;;;;;14.68;84.61;102032.47;5023909;28;20119;-49
2021/07/10 01:37:21;;;;;;;63.03;26.00;;;;;;;14.75;84.18;102029.09;5023502;28;20684;-50
2021/07/10 01:39:46;;;;;;;59.70;26.23;;;;;;;14.84;84.00;102023.06;5023654;28;20469;-47
2021/07/10 01:42:11;;;;;;;59.60;27.10;;;;;;;14.90;83.41;102029.28;5024016;28;20128;-48
2021/07/10 01:44:38;;;;;;;64.32;28.15;;;;;;;14.98;83.32;102025.03;5018731;28;20080;-48
2021/07/10 01:47:04;;;;;;;60.25;27.15;;;;;;;15.03;83.05;102020.72;5026136;28;20048;-49
2021/07/10 01:49:29;;;;;;;66.03;29.98;;;;;;;15.10;82.93;102012.94;5017754;28;20186;-51
2021/07/10 01:51:55;;;;;;;66.75;28.73;;;;;;;15.12;82.57;102008.59;5024162;28;20609;-48
2021/07/10 01:54:21;;;;;;;72.80;32.05;;;;;;;15.11;82.61;102009.44;5025020;28;20033;-52
2021/07/10 01:56:47;;;;;;;59.88;27.42;;;;;;;15.08;82.35;102015.53;5021275;28;20037;-48
2021/07/10 01:59:12;;;;;;;68.85;30.10;;;;;;;15.07;82.41;102015.50;5021954;28;20033;-50
2021/07/10 02:01:38;;;;;;;63.42;29.40;;;;;;;15.05;82.44;102010.25;5025388;28;20079;-51
2021/07/10 02:04:07;;;;;;;72.78;33.28;;;;;;;15.05;82.69;102010.25;5023884;28;20022;-48
2021/07/10 02:06:33;;;;;;;72.35;32.53;;;;;;;15.05;82.66;101999.75;5020144;28;20496;-51
2021/07/10 02:08:58;;;;;;;80.55;33.55;;;;;;;15.00;83.15;102014.56;5007243;28;20033;-47
2021/07/10 02:11:23;;;;;;;71.47;30.52;;;;;;;14.97;83.43;102007.53;5022672;28;20472;-50
2021/07/10 02:13:49;;;;;;;76.78;32.53;;;;;;;14.98;83.98;102003.16;5024743;28;20104;-50
2021/07/10 02:16:14;;;;;;;69.13;30.05;;;;;;;15.02;83.55;101999.69;5023661;28;20063;-50
2021/07/10 02:18:40;;;;;;;65.70;28.40;;;;;;;15.10;83.42;102002.41;5018011;28;20285;-49
2021/07/10 02:21:05;;;;;;;70.72;29.95;;;;;;;15.15;83.25;102004.25;5025270;28;20548;-47
2021/07/10 02:23:32;;;;;;;66.10;28.90;;;;;;;15.21;82.95;102004.31;4999631;28;20095;-48
2021/07/10 02:25:57;;;;;;;68.68;30.35;;;;;;;15.24;82.67;102004.38;5023691;28;20102;-51
2021/07/10 02:28:23;;;;;;;67.18;28.77;;;;;;;15.28;82.62;102006.16;5019956;28;20777;-48
2021/07/10 02:30:48;;;;;;;69.13;29.08;;;;;;;15.32;82.48;102000.06;5024744;28;20060;-49
2021/07/10 02:33:15;;;;;;;72.47;29.75;;;;;;;15.36;82.21;101996.63;5023458;28;21144;-47
2021/07/10 02:35:41;;;;;;;67.32;29.23;;;;;;;15.38;81.55;102000.13;5016219;28;20481;-48
2021/07/10 02:38:07;;;;;;;68.90;29.88;;;;;;;15.36;82.27;101994.00;5018289;28;20560;-47
2021/07/10 02:40:35;;;;;;;67.85;29.27;;;;;;;15.33;82.10;101999.22;5021292;28;20143;-52
2021/07/10 02:43:01;;;;;;;67.97;29.77;;;;;;;15.28;81.77;101990.41;5019315;28;20024;-47
2021/07/10 02:45:26;;;;;;;65.95;27.52;;;;;;;15.23;81.90;101984.22;5024183;28;20550;-48
2021/07/10 02:47:52;;;;;;;71.80;30.77;;;;;;;15.20;82.13;101981.53;5019498;28;20063;-47
2021/07/10 02:50:21;;;;;;;77.45;32.72;;;;;;;15.15;82.27;101977.09;5021454;28;20386;-48
2021/07/10 02:52:47;;;;;;;72.82;29.33;;;;;;;15.13;82.37;101976.19;5022026;28;20976;-47
2021/07/10 02:55:12;;;;;;;71.95;29.42;;;;;;;15.05;82.31;101973.47;5024053;28;20032;-52
2021/07/10 02:57:39;;;;;;;80.40;33.50;;;;;;;14.96;82.85;101976.88;5018261;28;20504;-51
2021/07/10 03:00:15;;;;;;;70.85;28.67;;;;;;;14.88;83.27;101962.75;5024835;28;20121;-54
2021/07/10 03:02:40;;;;;;;64.80;26.17;;;;;;;14.82;83.41;101962.66;5014176;28;20118;-49
2021/07/10 03:05:07;;;;;;;73.25;31.10;;;;;;;14.77;83.44;101963.47;5021905;28;20025;-49
2021/07/10 03:07:33;;;;;;;77.43;31.13;;;;;;;14.70;83.63;101959.03;5022120;28;20071;-49
2021/07/10 03:09:58;;;;;;;78.57;30.67;;;;;;;14.65;84.00;101960.66;5008431;28;20056;-48
2021/07/10 03:12:24;;;;;;;91.95;33.75;;;;;;;14.59;84.49;101959.72;5020826;28;20128;-48
2021/07/10 03:14:49;;;;;;;78.32;30.92;;;;;;;14.59;84.68;101964.09;5018367;28;20504;-53
2021/07/10 03:17:15;;;;;;;98.50;36.90;;;;;;;14.60;85.36;101952.75;5026222;28;20029;-50
2021/07/10 03:19:41;;;;;;;86.80;32.67;;;;;;;14.65;85.46;101952.78;5016848;28;20056;-49
2021/07/10 03:22:06;;;;;;;77.78;29.73;;;;;;;14.71;85.29;101947.63;5022223;28;20315;-48
2021/07/10 03:24:31;;;;;;;80.18;31.30;;;;;;;14.77;84.72;101945.09;5025166;28;20033;-52
2021/07/10 03:26:57;;;;;;;75.20;31.42;;;;;;;14.80;84.32;101947.78;5025089;28;20103;-46
2021/07/10 03:29:22;;;;;;;80.20;33.22;;;;;;;14.83;84.24;101950.41;5026546;28;20061;-48
2021/07/10 03:31:48;;;;;;;80.93;32.65;;;;;;;14.84;84.51;101946.94;5017073;28;20021;-48
2021/07/10 03:34:13;;;;;;;74.05;30.65;;;;;;;14.84;84.02;101942.56;5028161;28;20043;-50
2021/07/10 03:36:38;;;;;;;82.28;33.42;;;;;;;14.85;84.10;101946.06;5016665;28;20025;-49
2021/07/10 03:39:04;;;;;;;77.22;30.42;;;;;;;14.83;83.92;101940.81;5018349;28;20095;-50
2021/07/10 03:41:29;;;;;;;72.38;28.58;;;;;;;14.84;84.09;101941.69;5022563;28;20034;-49
2021/07/10 03:43:54;;;;;;;73.72;30.77;;;;;;;14.83;83.83;101932.94;5025391;28;20031;-48
2021/07/10 03:46:20;;;;;;;75.05;31.17;;;;;;;14.82;84.36;101931.16;5022716;28;20082;-50
2021/07/10 03:48:45;;;;;;;81.43;32.45;;;;;;;14.83;83.93;101934.66;5022764;28;20187;-51
2021/07/10 03:51:11;;;;;;;84.70;33.40;;;;;;;14.86;84.05;101932.09;5024320;28;20385;-50
2021/07/10 03:53:36;;;;;;;89.47;34.95;;;;;;;14.88;84.88;101939.09;5008462;28;20030;-49
2021/07/10 03:56:02;;;;;;;96.93;36.70;;;;;;;14.91;85.16;101936.53;5025977;28;20032;-49
2021/07/10 03:58:27;;;;;;;90.45;34.78;;;;;;;14.96;85.22;101936.59;5008679;28;20143;-49
2021/07/10 04:00:53;;;;;;;90.28;33.45;;;;;;;14.98;84.87;101938.38;5025435;28;20029;-47
2021/07/10 04:03:18;;;;;;;85.80;33.88;;;;;;;15.01;84.22;101934.91;5026141;28;20029;-50
2021/07/10 04:05:43;;;;;;;79.82;30.98;;;;;;;15.02;83.85;101928.78;5023048;28;20021;-50
2021/07/10 04:08:09;;;;;;;84.07;32.05;;;;;;;15.01;83.79;101925.28;5024513;28;20036;-51
2021/07/10 04:10:34;;;;;;;78.03;30.63;;;;;;;15.01;83.78;101927.00;5025705;28;20488;-50
2021/07/10 04:12:59;;;;;;;77.05;30.73;;;;;;;15.00;84.05;101927.91;5008916;28;20119;-51
2021/07/10 04:15:25;;;;;;;70.00;29.73;;;;;;;15.01;83.54;101927.00;5027834;28;20410;-48
2021/07/10 04:17:50;;;;;;;81.65;31.60;;;;;;;15.08;83.65;101926.22;5025594;28;20875;-51
2021/07/10 04:20:17;;;;;;;80.07;32.28;;;;;;;15.16;83.77;101928.94;5023679;28;20025;-49
2021/07/10 04:22:43;;;;;;;76.35;31.65;;;;;;;15.23;83.35;101925.53;5024069;28;20175;-47
2021/07/10 04:25:11;;;;;;;75.95;30.33;;;;;;;15.30;83.30;101922.13;5025869;28;20057;-49
2021/07/10 04:27:38;;;;;;;72.57;29.67;;;;;;;15.37;82.96;101914.28;5019363;28;20041;-50
2021/07/10 04:30:05;;;;;;;70.18;29.65;;;;;;;15.44;82.44;101921.38;5028443;28;20037;-49
2021/07/10 04:32:30;;;;;;;65.90;28.67;;;;;;;15.54;82.28;101918.88;5024739;28;20095;-47
2021/07/10 04:34:55;;;;;;;67.35;28.73;;;;;;;15.61;82.43;101921.59;5024856;28;20469;-47
2021/07/10 04:37:21;;;;;;;72.00;29.95;;;;;;;15.74;81.89;101920.81;5021395;28;20033;-48
2021/07/10 04:39:46;;;;;;;66.63;28.85;;;;;;;15.87;81.26;101919.16;5000702;28;20052;-53
2021/07/10 04:42:12;;;;;;;67.38;29.15;;;;;;;15.91;81.05;101922.72;5027963;28;20044;-50
2021/07/10 04:44:37;;;;;;;65.88;28.45;;;;;;;16.08;80.33;101922.00;5005436;28;20059;-48
2021/07/10 04:47:03;;;;;;;66.78;29.42;;;;;;;16.14;80.09;101921.16;5028104;28;20029;-50
2021/07/10 04:49:28;;;;;;;66.00;27.77;;;;;;;16.26;79.83;101921.22;5025668;28;20061;-48
2021/07/10 04:51:54;;;;;;;61.28;27.65;;;;;;;16.38;79.17;101915.16;5007510;28;20033;-51
2021/07/10 04:54:19;;;;;;;58.45;26.88;;;;;;;16.52;78.04;101911.75;5024875;28;20036;-48
2021/07/10 04:56:45;;;;;;;62.08;28.20;;;;;;;16.70;77.86;101918.00;5021497;28;20209;-46
2021/07/10 04:59:10;;;;;;;60.30;27.92;;;;;;;17.00;76.94;101913.75;5007933;28;20052;-48
2021/07/10 05:01:35;;;;;;;57.20;26.08;;;;;;;17.62;74.97;101910.41;5016069;28;20822;-46
2021/07/10 05:04:01;;;;;;;52.85;25.88;;;;;;;18.00;73.32;101909.50;5023684;28;20115;-47
2021/07/10 05:06:26;;;;;;;48.40;25.63;;;;;;;18.23;71.69;101913.03;5025082;28;20305;-48
2021/07/10 05:08:51;;;;;;;47.40;23.95;;;;;;;18.13;71.73;101914.78;5027654;28;20032;-49
2021/07/10 05:11:17;;;;;;;50.83;25.05;;;;;;;17.84;72.77;101917.44;5024411;28;20662;-49
2021/07/10 05:13:43;;;;;;;46.22;23.67;;;;;;;17.91;72.75;101923.59;5018761;28;20564;-48
2021/07/10 05:16:08;;;;;;;47.67;24.45;;;;;;;17.96;73.56;101913.94;5024307;28;20381;-48
2021/07/10 05:18:33;;;;;;;47.72;25.13;;;;;;;17.89;73.39;101914.81;5016185;28;20057;-47
2021/07/10 05:20:59;;;;;;;46.80;23.10;;;;;;;18.17;71.71;101911.28;5027296;28;20036;-49
2021/07/10 05:23:24;;;;;;;43.03;22.45;;;;;;;18.25;71.08;101904.22;5021248;28;20515;-50
2021/07/10 05:25:50;;;;;;;42.75;22.70;;;;;;;18.29;71.64;101906.88;5024275;28;20357;-50
2021/07/10 05:28:15;;;;;;;41.90;22.88;;;;;;;18.28;71.66;101905.97;5022831;28;20087;-48
2021/07/10 05:30:41;;;;;;;39.70;21.35;;;;;;;18.32;71.36;101907.72;5021709;28;20545;-50
2021/07/10 05:33:06;;;;;;;42.33;21.33;;;;;;;18.40;71.47;101916.50;5025824;28;20060;-49
2021/07/10 05:35:32;;;;;;;40.95;21.73;;;;;;;18.50;70.70;101915.59;5020229;28;20041;-49
2021/07/10 05:37:58;;;;;;;42.88;21.52;;;;;;;18.62;70.18;101906.78;5023604;28;20041;-48
2021/07/10 05:40:23;;;;;;;38.47;20.63;;;;;;;18.70;70.59;101906.78;5021236;28;20037;-51
2021/07/10 05:42:49;;;;;;;40.90;21.70;;;;;;;18.76;70.63;101914.69;5023896;28;20473;-51
2021/07/10 05:45:15;;;;;;;38.25;21.13;;;;;;;18.73;69.52;101909.38;5007096;28;20025;-48
2021/07/10 05:47:41;;;;;;;43.10;20.65;;;;;;;18.73;68.98;101914.66;5005199;28;20451;-48
2021/07/10 05:50:07;;;;;;;38.83;21.35;;;;;;;18.69;69.62;101915.56;5022111;28;20040;-55
2021/07/10 05:52:32;;;;;;;37.92;21.27;;;;;;;18.47;71.40;101912.97;5018377;28;20029;-49
2021/07/10 05:54:58;;;;;;;38.83;21.38;;;;;;;18.34;73.37;101915.66;5020291;28;20033;-51
2021/07/10 05:57:24;;;;;;;37.00;19.73;;;;;;;18.28;71.88;101911.25;5022628;28;20536;-51
2021/07/10 05:59:49;;;;;;;33.88;18.25;;;;;;;18.22;72.03;101912.16;5023890;28;20497;-47
2021/07/10 06:02:14;;;;;;;32.00;19.55;;;;;;;18.07;72.79;101914.78;5025563;28;20120;-48
2021/07/10 06:04:40;;;;;;;35.40;19.13;;;;;;;18.14;73.32;101918.31;5022420;28;20122;-49
2021/07/10 06:07:09;;;;;;;36.40;20.15;;;;;;;17.98;74.82;101914.81;5008488;28;20470;-49
2021/07/10 06:09:35;;;;;;;37.17;18.92;;;;;;;17.97;73.00;101909.53;5020565;28;20095;-49
2021/07/10 06:12:00;;;;;;;40.92;21.40;;;;;;;17.99;73.21;101915.69;5011355;28;20033;-51
2021/07/10 06:14:26;;;;;;;40.88;20.42;;;;;;;17.99;73.05;101920.97;5005447;28;20259;-47
2021/07/10 06:16:51;;;;;;;37.30;19.15;;;;;;;18.02;71.68;101913.94;5020210;28;20113;-47
2021/07/10 06:19:17;;;;;;;36.90;20.30;;;;;;;17.93;72.10;101916.56;5012226;28;20725;-48
2021/07/10 06:21:42;;;;;;;35.40;19.70;;;;;;;17.91;72.54;101918.34;5023766;28;20507;-49
2021/07/10 06:24:08;;;;;;;34.53;19.25;;;;;;;17.88;75.05;101915.69;5022048;28;20496;-49
2021/07/10 06:26:33;;;;;;;31.90;17.77;;;;;;;18.01;73.81;101909.53;5022227;28;20033;-48
2021/07/10 06:29:00;;;;;;;28.70;16.30;;;;;;;18.14;72.99;101910.41;5021158;28;20040;-48
2021/07/10 06:31:26;;;;;;;35.55;18.20;;;;;;;18.20;72.98;101906.00;5012129;28;20692;-48
2021/07/10 06:33:51;;;;;;;34.70;19.40;;;;;;;18.38;72.22;101910.34;5021535;28;20254;-51
2021/07/10 06:36:17;;;;;;;31.48;18.48;;;;;;;18.62;71.83;101914.72;5020274;28;20044;-49
2021/07/10 06:38:42;;;;;;;38.15;20.45;;;;;;;18.89;70.67;101908.47;5021688;28;20652;-51
2021/07/10 06:41:08;;;;;;;32.28;19.30;;;;;;;19.30;67.67;101910.88;5023815;28;20021;-50
2021/07/10 06:43:33;;;;;;;36.83;19.67;;;;;;;19.51;68.31;101904.63;5019635;28;20018;-48
2021/07/10 06:45:58;;;;;;;29.13;17.65;;;;;;;19.78;65.53;101899.09;5023559;28;20391;-47
2021/07/10 06:48:24;;;;;;;32.80;18.73;;;;;;;20.12;67.00;101900.56;5016968;28;20469;-51
2021/07/10 06:50:50;;;;;;;34.08;18.38;;;;;;;20.60;63.76;101895.69;5008851;28;20211;-47
2021/07/10 06:53:21;;;;;;;28.58;16.92;;;;;;;21.09;61.71;101895.06;5026663;28;20033;-49
2021/07/10 06:55:47;;;;;;;29.40;17.58;;;;;;;21.09;61.04;101898.59;5024037;28;20029;-48
2021/07/10 06:58:13;;;;;;;26.67;17.17;;;;;;;20.83;61.64;101900.69;5022376;28;20032;-49
2021/07/10 07:00:38;;;;;;;25.48;16.50;;;;;;;20.85;62.47;101904.19;5017692;28;20036;-48
2021/07/10 07:03:03;;;;;;;24.00;16.00;;;;;;;21.09;60.90;101901.22;5022686;28;20037;-49
2021/07/10 07:05:30;;;;;;;27.23;17.23;;;;;;;21.20;60.10;101899.34;5020504;28;20503;-49
2021/07/10 07:07:55;;;;;;;28.35;16.48;;;;;;;21.25;60.21;101904.56;5025761;28;20060;-46
2021/07/10 07:10:21;;;;;;;28.02;17.73;;;;;;;21.13;61.32;101902.06;5001943;28;20140;-46
2021/07/10 07:12:47;;;;;;;26.02;17.02;;;;;;;21.46;60.03;101898.97;5022107;28;20052;-47
2021/07/10 07:15:12;;;;;;;27.58;17.08;;;;;;;21.77;59.11;101896.69;5024208;28;20040;-52
2021/07/10 07:17:38;;;;;;;24.60;15.80;;;;;;;21.79;59.66;101893.09;5000476;28;20500;-46
2021/07/10 07:20:06;;;;;;;24.17;14.48;;;;;;;21.74;57.28;101892.31;5022563;28;20021;-49
2021/07/10 07:22:31;;;;;;;26.25;14.93;;;;;;;21.67;59.78;101893.28;5016659;28;20400;-48
2021/07/10 07:24:56;;;;;;;23.75;14.93;;;;;;;22.00;58.30;101885.69;5023742;28;20033;-48
2021/07/10 07:27:22;;;;;;;25.98;14.90;;;;;;;22.11;58.16;101887.25;5023470;28;20676;-52
2021/07/10 07:29:47;;;;;;;28.25;16.92;;;;;;;21.74;59.20;101884.34;5006877;28;20302;-47
2021/07/10 07:32:13;;;;;;;29.63;17.50;;;;;;;22.11;59.36;101883.72;5024565;28;20533;-48
2021/07/10 07:34:38;;;;;;;31.73;18.25;;;;;;;22.49;57.99;101881.22;5025584;28;20460;-46
2021/07/10 07:37:03;;;;;;;27.88;17.70;;;;;;;23.13;58.21;101879.00;5025377;28;20029;-49
2021/07/10 07:39:29;;;;;;;31.30;18.42;;;;;;;23.27;53.33;101876.91;5020992;28;21033;-50
2021/07/10 07:41:54;;;;;;;28.55;17.70;;;;;;;22.80;56.09;101881.50;5026341;28;20463;-48
2021/07/10 07:44:19;;;;;;;29.85;18.20;;;;;;;22.45;57.74;101882.16;5021901;28;20021;-48
2021/07/10 07:46:45;;;;;;;28.48;17.83;;;;;;;22.30;57.48;101874.50;5021796;28;20330;-50
2021/07/10 07:49:10;;;;;;;31.48;17.55;;;;;;;22.33;57.43;101874.44;5025555;28;20599;-50
2021/07/10 07:51:36;;;;;;;28.77;17.45;;;;;;;22.96;56.44;101877.59;5022963;28;20032;-50
2021/07/10 07:54:01;;;;;;;31.65;18.50;;;;;;;22.91;56.29;101878.59;5026144;28;20057;-49
2021/07/10 07:56:27;;;;;;;27.15;17.77;;;;;;;22.45;57.51;101870.66;5023039;28;20022;-49
2021/07/10 07:58:52;;;;;;;27.45;17.55;;;;;;;22.81;55.99;101869.94;5026682;28;20028;-48
2021/07/10 08:01:17;;;;;;;28.48;17.77;;;;;;;22.92;56.51;101864.41;5026203;28;20056;-52
2021/07/10 08:03:43;;;;;;;30.05;17.92;;;;;;;23.10;57.34;101863.13;5026336;28;20036;-48
2021/07/10 08:06:08;;;;;;;28.45;18.10;;;;;;;23.05;57.49;101864.06;5025253;28;20124;-53
2021/07/10 08:08:36;;;;;;;29.85;18.63;;;;;;;22.73;57.19;101868.38;5023675;28;20094;-48
2021/07/10 08:11:09;;;;;;;27.77;18.20;;;;;;;22.58;56.92;101870.38;5011327;28;20472;-51
2021/07/10 08:13:35;;;;;;;26.30;17.10;;;;;;;23.03;56.17;101862.38;5023010;28;20314;-48
2021/07/10 08:16:00;;;;;;;23.50;16.63;;;;;;;23.03;55.07;101860.59;5011809;28;20574;-49
2021/07/10 08:18:26;;;;;;;24.70;16.55;;;;;;;22.49;55.62;101857.31;5016208;28;20028;-48
2021/07/10 08:20:51;;;;;;;26.08;17.00;;;;;;;22.15;58.51;101859.72;5008543;28;20033;-49
2021/07/10 08:23:20;;;;;;;24.20;16.35;;;;;;;21.85;57.53;101854.94;5023182;28;20108;-50
2021/07/10 08:25:46;;;;;;;20.23;14.52;;;;;;;21.85;58.03;101860.25;5019889;28;20056;-52
2021/07/10 08:28:12;;;;;;;35.20;16.60;;;;;;;22.05;58.70;101859.94;5019726;28;20205;-50
2021/07/10 08:30:37;;;;;;;27.38;16.98;;;;;;;22.30;56.70;101863.00;5019277;28;20094;-52
2021/07/10 08:33:03;;;;;;;26.23;16.50;;;;;;;22.24;55.99;101856.91;5028580;28;20028;-48
2021/07/10 08:35:28;;;;;;;22.05;14.23;;;;;;;22.59;54.12;101852.66;5016635;28;20397;-48
2021/07/10 08:37:53;;;;;;;19.67;13.38;;;;;;;22.97;52.96;101844.78;5022599;28;20028;-48
2021/07/10 08:40:20;;;;;;;17.95;11.73;;;;;;;23.48;51.90;101848.97;5009001;28;20455;-49
2021/07/10 08:42:46;;;;;;;19.50;13.75;;;;;;;23.74;53.69;101850.03;5023468;28;20040;-52
2021/07/10 08:45:13;;;;;;;18.25;12.32;;;;;;;24.10;49.82;101842.84;5026657;28;20033;-52
2021/07/10 08:47:41;;;;;;;13.55;10.93;;;;;;;24.14;49.90;101841.00;5018610;28;20029;-50
2021/07/10 08:50:09;;;;;;;18.88;11.93;;;;;;;24.09;49.62;101845.59;5002559;28;20569;-49
2021/07/10 08:52:36;;;;;;;17.90;12.48;;;;;;;23.86;50.87;101843.50;5009158;28;20475;-48
2021/07/10 08:55:06;;;;;;;19.00;13.50;;;;;;;23.50;52.32;101841.78;5022097;28;20036;-48
2021/07/10 08:57:35;;;;;;;24.48;15.85;;;;;;;23.19;54.42;101838.94;5020498;28;20016;-52
2021/07/10 09:00:07;;;;;;;17.70;13.00;;;;;;;23.49;52.63;101840.03;5006129;28;20060;-51
2021/07/10 09:02:33;;;;;;;22.38;14.77;;;;;;;23.72;52.07;101832.38;5023596;28;20031;-52
2021/07/10 09:04:59;;;;;;;18.60;13.95;;;;;;;23.91;51.20;101833.59;5023292;28;20033;-49
2021/07/10 09:07:25;;;;;;;21.52;15.27;;;;;;;24.07;50.75;101826.09;5019426;28;20025;-47
2021/07/10 09:09:50;;;;;;;24.65;14.95;;;;;;;24.21;50.18;101829.28;5016064;28;20029;-52
2021/07/10 09:12:27;;;;;;;20.90;14.40;;;;;;;24.01;51.92;101823.59;5024348;28;20028;-54
2021/07/10 09:14:52;;;;;;;22.95;15.77;;;;;;;23.86;51.85;101824.88;5017339;28;20025;-52
2021/07/10 09:17:20;;;;;;;21.30;15.45;;;;;;;23.67;53.35;101824.47;5025830;28;20036;-53
2021/07/10 09:19:46;;;;;;;23.02;16.30;;;;;;;23.32;53.76;101822.66;5026742;28;20025;-52
2021/07/10 09:22:23;;;;;;;25.00;18.02;;;;;;;22.48;58.81;101820.13;5002533;28;20150;-50
2021/07/10 09:24:49;;;;;;;23.15;16.25;;;;;;;22.65;55.58;101817.97;5019592;28;20140;-48
2021/07/10 09:27:15;;;;;;;22.50;16.48;;;;;;;22.80;55.24;101815.03;5022006;28;20408;-51
2021/07/10 09:29:43;;;;;;;20.95;16.05;;;;;;;22.92;53.57;101819.19;5020254;28;20031;-53
2021/07/10 09:32:11;;;;;;;21.58;16.13;;;;;;;23.18;53.28;101816.78;5018277;28;20029;-49
2021/07/10 09:34:44;;;;;;;21.10;16.13;;;;;;;23.11;52.29;101812.56;5025525;28;20104;-49
2021/07/10 09:37:19;;;;;;;22.27;15.82;;;;;;;23.20;52.50;101819.41;5018945;28;20404;-51
2021/07/10 09:39:59;;;;;;;21.27;15.02;;;;;;;23.36;54.79;101816.34;5023449;28;20325;-49
2021/07/10 09:42:30;;;;;;;18.52;15.35;;;;;;;23.48;53.81;101812.56;5025051;28;20292;-52
2021/07/10 09:44:56;;;;;;;21.33;15.82;;;;;;;23.60;54.59;101812.25;5022943;28;20055;-51
2021/07/10 09:47:30;;;;;;;20.42;15.27;;;;;;;23.51;55.41;101815.13;5017199;28;20040;-52
2021/07/10 09:49:57;;;;;;;20.52;15.43;;;;;;;23.27;54.76;101807.72;5018010;28;20053;-48
2021/07/10 09:52:25;;;;;;;17.90;15.13;;;;;;;23.26;52.20;101803.31;5023932;28;20116;-49
2021/07/10 09:54:53;;;;;;;17.50;14.32;;;;;;;23.31;50.82;101799.63;5014373;28;20025;-50
2021/07/10 09:57:26;;;;;;;18.80;13.55;;;;;;;23.38;50.18;101798.56;5025385;28;20029;-49
2021/07/10 09:59:53;;;;;;;19.40;13.40;;;;;;;23.71;52.54;101796.88;5017595;28;20043;-51
2021/07/10 10:02:30;;;;;;;17.30;13.02;;;;;;;23.85;52.33;101796.47;5021676;28;20150;-47
2021/07/10 10:05:07;;;;;;;19.17;14.77;;;;;;;23.77;50.50;101793.16;5019750;28;20187;-47
2021/07/10 10:07:52;;;;;;;21.75;15.80;;;;;;;23.57;49.10;101790.16;5020110;28;20033;-53
2021/07/10 10:10:33;;;;;;;22.02;16.05;;;;;;;23.78;48.99;101789.59;5021144;28;20117;-50
2021/07/10 10:13:07;;;;;;;18.95;14.32;;;;;;;24.08;48.34;101783.44;5012272;28;20033;-51
2021/07/10 10:15:47;;;;;;;20.92;15.38;;;;;;;23.89;50.32;101783.97;5023238;28;20032;-48
2021/07/10 10:18:15;;;;;;;20.60;16.10;;;;;;;23.73;49.16;101789.69;5005525;28;20021;-48
2021/07/10 10:20:41;;;;;;;21.17;15.35;;;;;;;23.72;53.22;101789.75;5003251;28;20431;-49
2021/07/10 10:23:07;;;;;;;20.20;15.63;;;;;;;23.74;51.97;101787.91;5019081;28;20123;-52
2021/07/10 10:25:34;;;;;;;20.08;15.13;;;;;;;23.88;50.44;101785.75;5024233;28;20116;-51
2021/07/10 10:28:02;;;;;;;22.38;15.30;;;;;;;24.30;49.90;101775.72;5015821;28;20037;-48
2021/07/10 10:30:27;;;;;;;19.30;15.63;;;;;;;24.33;50.04;101780.97;5019580;28;20350;-50
2021/07/10 10:32:53;;;;;;;20.42;15.45;;;;;;;24.35;51.36;101775.56;5025489;28;20033;-52
2021/07/10 10:35:19;;;;;;;21.42;14.00;;;;;;;24.65;50.13;101772.00;5017035;28;20032;-51
2021/07/10 10:37:45;;;;;;;14.00;11.88;;;;;;;25.03;49.80;101770.81;5017228;28;20144;-51
2021/07/10 10:40:16;;;;;;;17.90;13.93;;;;;;;25.03;48.08;101768.16;5003707;28;20029;-49
2021/07/10 10:42:43;;;;;;;18.23;12.10;;;;;;;25.45;47.58;101768.53;5005853;28;20137;-48
2021/07/10 10:45:09;;;;;;;16.95;12.68;;;;;;;25.94;47.71;101765.03;5001631;28;20511;-49
2021/07/10 10:47:43;;;;;;;23.70;15.73;;;;;;;25.49;48.96;101758.63;5022277;28;20027;-51
2021/07/10 10:50:17;;;;;;;20.55;15.10;;;;;;;25.48;47.16;101759.53;5020358;28;20083;-53
2021/07/10 10:52:44;;;;;;;25.20;15.02;;;;;;;25.19;49.13;101752.53;5022246;28;20036;-48
2021/07/10 10:55:13;;;;;;;19.63;14.45;;;;;;;25.45;45.82;101747.16;5020715;28;20033;-49
2021/07/10 10:57:57;;;;;;;23.60;15.18;;;;;;;25.09;45.51;101746.59;5016993;28;20545;-48
2021/07/10 11:00:23;;;;;;;20.35;15.52;;;;;;;24.57;49.03;101747.38;5021860;28;20053;-48
2021/07/10 11:03:05;;;;;;;19.17;15.13;;;;;;;24.40;49.61;101736.31;5019927;28;20124;-51
2021/07/10 11:05:31;;;;;;;17.60;13.73;;;;;;;24.45;51.08;101734.41;5026175;28;20028;-50
2021/07/10 11:08:18;;;;;;;15.52;11.82;;;;;;;24.89;44.79;101728.56;5023252;28;20034;-49